Latest Weather Observations for Esperance

IDW60801

Issued at 7:35 am WST Wednesday 3 September 2014 (issued every 30 minutes, with the page automatically refreshed every 10 minutes)

About weather observations | Map of weather stations | Latest weather observations for WA | Other Formats
Station Details ID: 009789 Name: ESPERANCE Lat: -33.83 Lon: 121.89 Height: 25.0 m
Data from the previous 72 hours. | See also: Recent months at Esperance
Date/Time
WST
Temp
°C
App
Temp
°C
Dew
Point
Rel
Hum
%
Delta-T
°C
Wind Press
QNH
hPa
Press
MSL
hPa
Rain
since 9 am
mm
Dir
 
Spd
km/h
Gust
km/h
Spd
kts
Gust
kts
03/07:30am 15.2 11.6 10.6 74 2.4 S 20 28 11 15 1020.6 1020.6 0.6
03/07:00am 15.0 11.9 11.6 80 1.8 S 19 28 10 15 1020.0 1019.9 0.6
03/06:30am 14.5 12.6 11.9 84 1.4 SSW 13 19 7 10 1019.8 1019.7 0.6
03/06:00am 14.1 12.5 12.8 92 0.7 S 13 22 7 12 1019.4 1019.3 0.6
03/05:30am 13.2 12.3 11.5 89 0.9 NNW 7 9 4 5 1019.1 1019.0 0.2
03/05:00am 12.1 10.8 11.1 94 0.5 N 9 9 5 5 1018.9 1018.8 0.2
03/04:30am 12.6 11.3 11.3 92 0.7 SW 9 11 5 6 1018.5 1018.4 0.2
03/04:00am 12.4 11.1 11.3 93 0.6 WNW 9 11 5 6 1018.1 1018.0 0.2
03/03:30am 12.9 11.6 11.2 89 0.9 WNW 9 11 5 6 1017.8 1017.7 0.2
03/03:00am 14.0 12.7 11.4 84 1.4 SW 9 9 5 5 1017.7 1017.6 0.2
03/02:30am 14.0 12.6 11.0 82 1.6 WSW 9 15 5 8 1017.7 1017.6 0.2
03/02:00am 13.6 10.6 9.1 74 2.3 WNW 15 20 8 11 1017.8 1017.7 0.2
03/01:30am 13.6 11.3 9.1 74 2.3 WNW 11 15 6 8 1017.7 1017.6 0.2
03/01:00am 13.5 10.9 9.2 75 2.2 NNW 13 15 7 8 1017.5 1017.4 0.2
03/12:30am 13.6 11.8 9.5 76 2.1 NW 9 13 5 7 1017.6 1017.5 0.2
03/12:00am 14.3 12.4 9.0 70 2.7 W 9 15 5 8 1017.8 1017.7 0.2
 
Date/Time
WST
Temp
°C
App
Temp
°C
Dew
Point
Rel
Hum
%
Delta-T
°C
Wind Press
QNH
hPa
Press
MSL
hPa
Rain
since 9 am
mm
Dir
 
Spd
km/h
Gust
km/h
Spd
kts
Gust
kts
02/11:30pm 14.5 12.6 9.0 69 2.8 WNW 9 11 5 6 1017.6 1017.5 0.2
02/11:00pm 15.4 12.9 8.3 62 3.6 WSW 11 17 6 9 1018.0 1017.9 0.2
02/10:30pm 15.4 13.4 8.5 63 3.5 WNW 9 15 5 8 1018.0 1017.9 0.2
02/10:00pm 16.1 11.9 7.5 56 4.3 NNW 19 24 10 13 1017.6 1017.5 0.2
02/09:30pm 15.7 11.5 8.2 61 3.8 N 20 26 11 14 1017.6 1017.5 0.2
02/09:00pm 15.6 9.6 8.5 62 3.6 N 30 41 16 22 1017.0 1016.9 0.2
02/08:30pm 15.1 9.2 9.0 67 3.1 N 30 39 16 21 1016.8 1016.7 0.2
02/08:00pm 15.0 9.5 9.1 68 3.0 N 28 35 15 19 1016.7 1016.6 0.2
02/07:30pm 14.6 8.8 9.3 70 2.7 N 30 41 16 22 1017.0 1016.9 0.2
02/07:00pm 15.0 9.7 8.5 65 3.3 N 26 35 14 19 1015.9 1015.8 0.2
02/06:30pm 14.9 9.6 8.6 66 3.2 N 26 39 14 21 1015.8 1015.7 0.2
02/06:00pm 14.5 8.6 9.2 70 2.7 N 30 37 16 20 1016.4 1016.3 0.2
02/05:30pm 14.7 9.5 8.8 68 3.0 N 26 39 14 21 1016.7 1016.6 0.0
02/05:00pm 15.1 10.2 8.4 64 3.4 N 24 35 13 19 1016.9 1016.8 0.0
02/04:30pm 14.9 11.1 9.0 68 3.0 N 19 24 10 13 1017.2 1017.1 0.0
02/04:00pm 15.0 13.1 9.1 68 3.0 NW 9 11 5 6 1018.0 1017.9 0.0
02/03:30pm 15.7 10.9 7.2 57 4.2 N 22 32 12 17 1017.2 1017.1 0.0
02/03:00pm 16.1 10.6 7.5 56 4.3 N 26 39 14 21 1016.8 1016.7 0.0
02/02:30pm 16.6 12.4 7.6 55 4.5 N 19 28 10 15 1016.9 1016.8 0.0
02/02:00pm 16.6 14.1 8.1 57 4.3 NW 11 17 6 9 1018.2 1018.1 0.0
02/01:30pm 16.2 11.3 7.1 55 4.5 N 22 28 12 15 1018.3 1018.2 0.0
02/01:00pm 15.9 10.0 5.9 51 4.8 N 26 37 14 20 1017.6 1017.5 0.0
02/12:30pm 15.2 10.1 6.0 54 4.4 NNE 22 35 12 19 1017.2 1017.1 0.0
02/12:00pm 14.3 8.8 6.1 58 3.9 NNE 24 35 13 19 1018.9 1018.8 0.0
02/11:30am 13.3 8.2 5.9 61 3.5 N 22 32 12 17 1020.8 1020.8 0.0
02/11:00am 12.8 8.3 6.2 64 3.1 N 19 30 10 16 1021.4 1021.4 0.0
02/10:30am 12.0 7.4 6.7 70 2.5 N 20 30 11 16 1022.2 1022.2 0.0
02/10:00am 10.9 5.8 6.2 73 2.2 N 22 32 12 17 1022.0 1022.0 0.0
02/09:40am 11.0 6.2 5.6 69 2.5 NNE 20 33 11 18 1021.8 1021.8 0.0
02/09:30am 10.8 5.6 5.6 70 2.4 NNE 22 37 12 20 1021.3 1021.3 0.0
02/09:00am 10.8 5.1 5.1 68 2.6 N 24 33 13 18 1022.7 1022.7 0.2
02/08:30am 11.0 5.5 4.0 62 3.1 N 22 35 12 19 1022.8 1022.8 0.2
02/08:00am 10.8 4.8 3.2 59 3.3 N 24 37 13 20 1022.6 1022.6 0.2
02/07:30am 10.4 4.3 2.7 59 3.3 N 24 39 13 21 1022.6 1022.6 0.2
02/07:00am 10.0 3.9 2.5 59 3.2 NNE 24 39 13 21 1022.7 1022.7 0.2
02/06:30am 9.9 3.3 2.3 59 3.2 NNE 26 39 14 21 1022.5 1022.5 0.2
02/06:04am 9.7 3.6 2.6 61 3.0 NNE 24 35 13 19 1022.7 1022.7 0.2
02/06:00am 9.8 3.7 2.5 60 3.1 NNE 24 35 13 19 1022.8 1022.8 0.2
02/05:30am 9.8 3.7 2.5 60 3.1 NNE 24 35 13 19 1022.9 1022.9 0.2
02/05:00am 9.8 3.3 2.5 60 3.1 NNE 26 39 14 21 1022.8 1022.8 0.2
02/04:30am 9.5 3.4 2.7 62 2.9 NNE 24 39 13 21 1023.0 1023.0 0.2
02/04:00am 9.2 3.1 2.8 64 2.7 NNE 24 33 13 18 1022.8 1022.8 0.2
02/03:30am 9.0 2.9 2.9 65 2.6 NNE 24 33 13 18 1023.1 1023.1 0.2
02/03:00am 8.6 3.3 3.2 69 2.3 NNE 20 32 11 17 1023.5 1023.5 0.2
02/02:30am 8.2 3.5 3.2 71 2.1 NNE 17 24 9 13 1024.0 1024.0 0.2
02/02:00am 8.0 3.3 3.3 72 2.0 NNE 17 24 9 13 1024.1 1024.1 0.2
02/01:30am 8.3 3.1 3.4 71 2.1 NNE 20 30 11 16 1024.5 1024.5 0.2
02/01:00am 8.3 3.3 3.6 72 2.0 NNE 19 28 10 15 1025.0 1025.0 0.2
02/12:30am 8.1 3.2 4.2 76 1.7 NNE 19 24 10 13 1025.1 1025.1 0.2
02/12:00am 7.8 4.1 4.3 78 1.5 NNE 13 17 7 9 1025.1 1025.1 0.2
 
Date/Time
WST
Temp
°C
App
Temp
°C
Dew
Point
Rel
Hum
%
Delta-T
°C
Wind Press
QNH
hPa
Press
MSL
hPa
Rain
since 9 am
mm
Dir
 
Spd
km/h
Gust
km/h
Spd
kts
Gust
kts
01/11:30pm 7.8 4.0 4.1 77 1.6 NNE 13 20 7 11 1025.7 1025.7 0.2
01/11:00pm 7.9 4.4 3.7 75 1.8 NE 11 15 6 8 1026.2 1026.2 0.2
01/10:30pm 8.4 4.6 3.7 72 2.0 NE 13 20 7 11 1026.3 1026.3 0.2
01/10:00pm 8.4 5.3 3.7 72 2.0 ENE 9 13 5 7 1026.2 1026.2 0.2
01/09:30pm 8.6 5.5 3.7 71 2.1 ENE 9 13 5 7 1026.2 1026.2 0.2
01/09:00pm 8.9 5.8 3.5 69 2.3 E 9 15 5 8 1026.4 1026.4 0.2
01/08:30pm 9.3 6.2 3.8 68 2.4 E 9 15 5 8 1026.5 1026.5 0.2
01/08:00pm 9.8 6.4 3.8 66 2.6 ENE 11 20 6 11 1026.4 1026.4 0.2
01/07:30pm 9.9 6.6 4.5 69 2.4 ENE 11 15 6 8 1026.3 1026.3 0.2
01/07:00pm 10.5 7.6 4.4 66 2.7 ENE 9 15 5 8 1026.0 1026.0 0.2
01/06:30pm 11.4 8.1 4.8 64 3.0 ENE 11 20 6 11 1025.9 1025.9 0.2
01/06:00pm 12.5 7.6 4.0 56 3.8 E 19 28 10 15 1025.2 1025.2 0.2
01/05:30pm 12.6 8.4 3.6 54 4.0 E 15 22 8 12 1025.0 1025.0 0.2
01/05:00pm 13.3 8.4 4.0 53 4.2 ESE 19 26 10 14 1024.7 1024.7 0.2
01/04:30pm 13.7 8.6 4.3 53 4.3 ESE 20 28 11 15 1024.8 1024.8 0.2
01/04:00pm 13.9 8.8 4.3 52 4.4 SE 20 28 11 15 1024.8 1024.8 0.2
01/03:30pm 14.2 9.2 3.8 49 4.7 SE 19 26 10 14 1024.6 1024.6 0.2
01/03:00pm 14.0 8.7 3.0 47 4.9 SE 20 26 11 14 1024.4 1024.4 0.2
01/02:30pm 14.5 9.4 2.8 45 5.2 SE 19 24 10 13 1024.6 1024.6 0.2
01/02:00pm 14.7 9.9 2.8 44 5.3 SE 17 22 9 12 1024.6 1024.6 0.2
01/01:30pm 14.9 10.5 2.8 44 5.4 SE 15 20 8 11 1024.8 1024.8 0.2
01/01:00pm 14.5 10.8 2.5 44 5.3 SSE 11 17 6 9 1025.1 1025.1 0.0
01/12:30pm 14.0 10.0 2.7 46 5.0 SE 13 19 7 10 1025.3 1025.3 0.0
01/12:00pm 14.4 10.0 2.7 45 5.2 SSE 15 20 8 11 1025.6 1025.6 0.0
01/11:30am 14.2 10.1 2.4 45 5.2 SE 13 19 7 10 1025.8 1025.8 0.0
01/11:00am 14.1 9.8 3.4 48 4.8 SSE 15 20 8 11 1026.1 1026.1 0.0
01/10:30am 14.2 10.4 3.8 49 4.7 SSE 13 20 7 11 1026.3 1026.3 0.0
01/10:00am 14.7 11.7 4.0 48 4.9 SE 9 15 5 8 1026.4 1026.4 0.0
01/09:30am 13.4 11.0 4.4 54 4.1 ESE 6 11 3 6 1026.2 1026.2 0.0
01/09:00am 13.2 11.0 5.5 59 3.6 NNE 6 11 3 6 1026.1 1026.1 0.0
01/08:30am 13.1 10.8 5.6 60 3.5 N 7 9 4 5 1025.8 1025.8 0.0
01/08:00am 11.5 9.5 7.3 75 2.0 N 7 9 4 5 1025.4 1025.4 0.0
01/07:30am 11.3 9.1 6.4 72 2.3 NNW 7 9 4 5 1024.9 1024.9 0.0
01/07:00am 10.8 8.7 6.0 72 2.2 SW 6 11 3 6 1024.5 1024.5 0.0
01/06:30am 11.5 8.4 3.6 58 3.5 S 9 15 5 8 1024.2 1024.2 0.0
01/06:00am 11.9 7.6 3.0 54 3.9 S 15 22 8 12 1023.8 1023.8 0.0
01/05:30am 11.6 7.4 3.7 58 3.5 SSE 15 22 8 12 1023.3 1023.3 0.0
01/05:00am 12.0 7.3 3.1 54 3.9 S 17 24 9 13 1023.1 1023.1 0.0
01/04:30am 12.0 7.8 1.6 49 4.4 S 13 26 7 14 1022.9 1022.9 0.0
01/04:00am 12.2 7.6 1.6 48 4.5 S 15 22 8 12 1023.0 1023.0 0.0
01/03:30am 12.0 7.9 2.2 51 4.2 S 13 20 7 11 1022.6 1022.6 0.0
01/03:00am 12.2 7.8 2.5 51 4.2 S 15 20 8 11 1022.3 1022.3 0.0
01/02:30am 12.1 8.7 3.8 57 3.7 SSW 11 17 6 9 1022.2 1022.2 0.0
01/02:00am 12.1 8.4 4.3 59 3.5 S 13 22 7 12 1022.0 1022.0 0.0
01/01:30am 11.5 8.6 4.4 61 3.2 SSW 9 11 5 6 1022.0 1022.0 0.0
01/01:00am 12.0 8.3 4.2 59 3.5 S 13 19 7 10 1021.9 1021.9 0.0
01/12:30am 12.1 7.8 5.4 63 3.1 S 17 24 9 13 1021.8 1021.8 0.0
01/12:00am 11.9 8.1 3.8 57 3.6 SSW 13 17 7 9 1021.8 1021.8 0.0
 
Date/Time
WST
Temp
°C
App
Temp
°C
Dew
Point
Rel
Hum
%
Delta-T
°C
Wind Press
QNH
hPa
Press
MSL
hPa
Rain
since 9 am
mm
Dir
 
Spd
km/h
Gust
km/h
Spd
kts
Gust
kts
31/11:30pm 12.3 7.8 4.1 57 3.7 S 17 28 9 15 1021.7 1021.7 0.0
31/11:00pm 12.4 7.7 5.2 61 3.3 S 19 28 10 15 1021.6 1021.6 0.0
31/10:30pm 12.2 8.2 5.0 61 3.3 S 15 24 8 13 1021.6 1021.6 0.0
31/10:00pm 12.5 7.8 5.9 64 3.1 S 20 28 11 15 1021.5 1021.5 0.0
31/09:30pm 12.4 7.3 6.0 65 3.0 S 22 35 12 19 1021.3 1021.3 0.0
31/09:00pm 12.5 8.3 7.6 72 2.4 S 19 33 10 18 1021.0 1021.0 0.0
31/08:30pm 12.6 8.0 5.5 62 3.3 S 19 30 10 16 1020.8 1020.8 0.0
31/08:00pm 12.8 8.8 6.5 65 3.0 S 17 32 9 17 1020.5 1020.5 0.0
31/07:30pm 12.8 8.3 6.0 63 3.2 SSW 19 30 10 16 1020.6 1020.6 0.0
31/07:00pm 13.0 9.2 5.8 61 3.4 SW 15 24 8 13 1020.5 1020.5 0.0
31/06:30pm 12.8 9.0 5.8 62 3.3 WSW 15 22 8 12 1020.1 1020.1 0.0
31/06:00pm 12.8 8.9 5.2 60 3.5 SW 15 20 8 11 1019.3 1019.3 0.0
31/05:30pm 13.2 9.4 6.0 61 3.4 SW 15 22 8 12 1018.9 1018.9 0.0
31/05:00pm 14.2 10.4 6.0 58 3.9 SW 15 24 8 13 1018.6 1018.6 0.0
31/04:30pm 14.7 11.5 6.7 58 3.9 SW 13 22 7 12 1018.3 1018.3 0.0
31/04:00pm 13.8 10.5 8.2 69 2.8 WSW 15 24 8 13 1018.2 1018.2 0.0
31/03:30pm 15.5 10.9 6.7 55 4.3 WSW 20 32 11 17 1017.9 1017.9 0.0
31/03:00pm 15.6 10.9 6.1 53 4.6 WSW 20 32 11 17 1017.3 1017.3 0.0
31/02:30pm 15.9 11.2 5.9 51 4.8 WSW 20 33 11 18 1017.1 1017.1 0.0
31/02:00pm 15.6 10.3 6.6 55 4.4 WSW 24 37 13 20 1017.2 1017.2 0.0
31/01:30pm 16.3 12.0 8.0 58 4.2 WSW 20 32 11 17 1017.1 1017.1 0.0
31/01:00pm 15.7 11.4 7.0 56 4.3 WSW 19 35 10 19 1017.0 1017.0 0.0
31/12:30pm 15.1 12.1 9.3 68 3.0 W 15 28 8 15 1017.2 1017.2 0.0
31/12:00pm 12.7 8.5 9.6 81 1.6 W 22 35 12 19 1017.3 1017.3 0.0
31/11:30am 13.3 7.7 7.1 66 3.0 SW 26 46 14 25 1017.5 1017.5 0.0
31/11:00am 15.8 13.7 9.6 66 3.2 W 11 19 6 10 1017.3 1017.3 0.0
31/10:30am 15.4 13.5 11.9 79 1.9 NW 13 17 7 9 1017.6 1017.6 0.0
31/10:00am 14.0 12.0 11.4 84 1.4 WNW 13 20 7 11 1017.6 1017.6 0.0
31/09:30am 12.9 10.4 11.0 88 1.0 WNW 15 19 8 10 1017.7 1017.7 0.0
31/09:00am 12.5 11.3 11.6 94 0.5 NW 9 13 5 7 1017.7 1017.7 14.0
31/08:30am 11.7 10.9 10.9 95 0.4 WSW 6 7 3 4 1017.8 1017.8 14.0
31/08:00am 11.3 9.4 10.5 95 0.4 SW 11 17 6 9 1017.5 1017.5 13.4
31/07:55am 11.4 9.5 10.6 95 0.4 SSW 11 17 6 9 1017.4 1017.4 13.0

Other Formats:

Comma delimited format used in spreadsheet applications
http://www.bom.gov.au/fwo/IDW60801/IDW60801.94638.axf

JavaScript Object Notation format (JSON) in row-major order
http://www.bom.gov.au/fwo/IDW60801/IDW60801.94638.json